Time;durP1;ratioP1;P1;durP2;ratioP2;P2;SDS_P1;SDS_P2;PMS_P1;PMS_P2;Temp;Humidity;BMP_temperature;BMP_pressure;BME280_temperature;BME280_humidity;BME280_pressure;Samples;Min_cycle;Max_cycle;Signal;HPM_P1;HPM_P2
2022/11/19 00:00:35;;;;;;;0.60;0.60;;;;;;;0.69;63.81;101031.56;5064906;28;20442;-74
2022/11/19 00:03:00;;;;;;;0.60;0.60;;;;;;;0.66;63.55;101024.63;5064835;28;20031;-74
2022/11/19 00:05:26;;;;;;;0.60;0.60;;;;;;;0.68;63.87;101030.69;5064975;28;20111;-74
2022/11/19 00:07:51;;;;;;;0.60;0.60;;;;;;;0.69;64.00;101022.22;5064562;28;20048;-74
2022/11/19 00:10:17;;;;;;;0.60;0.60;;;;;;;0.69;63.56;101011.09;5063480;28;20021;-74
2022/11/19 00:12:54;;;;;;;0.60;0.60;;;;;;;0.69;63.63;101027.31;5063104;28;20028;-75
2022/11/19 00:15:22;;;;;;;0.60;0.60;;;;;;;0.67;63.55;101023.81;5064582;28;20021;-74
2022/11/19 00:17:48;;;;;;;0.60;0.60;;;;;;;0.58;63.19;101024.31;5064525;28;20033;-75
2022/11/19 00:20:14;;;;;;;0.60;0.60;;;;;;;0.53;63.19;101022.38;5064482;28;20102;-74
2022/11/19 00:22:43;;;;;;;0.60;0.60;;;;;;;0.50;63.32;101030.78;5064309;28;20036;-74
2022/11/19 00:25:09;;;;;;;0.60;0.60;;;;;;;0.48;63.28;101040.94;5064910;28;20064;-74
2022/11/19 00:27:35;;;;;;;0.70;0.70;;;;;;;0.54;63.18;101042.00;5064601;28;20032;-74
2022/11/19 00:30:01;;;;;;;0.60;0.60;;;;;;;0.55;63.02;101036.97;5064591;28;20029;-73
2022/11/19 00:32:26;;;;;;;0.50;0.50;;;;;;;0.52;63.13;101035.94;5063012;28;20025;-73
2022/11/19 00:34:52;;;;;;;0.50;0.50;;;;;;;0.56;62.93;101035.28;5064697;28;20025;-74
2022/11/19 00:37:17;;;;;;;0.70;0.70;;;;;;;0.56;63.28;101043.81;5064351;28;20043;-73
2022/11/19 00:39:42;;;;;;;0.60;0.60;;;;;;;0.55;62.76;101041.19;5064391;28;20033;-72
2022/11/19 00:42:07;;;;;;;0.60;0.60;;;;;;;0.51;62.71;101039.31;5062741;28;20477;-72
2022/11/19 00:44:33;;;;;;;0.57;0.57;;;;;;;0.46;62.72;101032.31;5064394;28;20021;-73
2022/11/19 00:46:58;;;;;;;0.70;0.70;;;;;;;0.54;62.68;101049.69;5062898;28;20520;-74
2022/11/19 00:49:24;;;;;;;0.70;0.70;;;;;;;0.56;62.65;101046.38;5064472;28;20120;-73
2022/11/19 00:51:49;;;;;;;0.60;0.60;;;;;;;0.56;62.92;101041.25;5063087;28;20052;-72
2022/11/19 00:54:14;;;;;;;0.60;0.60;;;;;;;0.59;62.88;101046.50;5064447;28;20036;-72
2022/11/19 00:56:40;;;;;;;0.60;0.60;;;;;;;0.62;62.96;101033.00;5062962;28;20029;-73
2022/11/19 00:59:05;;;;;;;0.70;0.70;;;;;;;0.69;63.00;101039.22;5064178;28;20028;-74
2022/11/19 01:01:31;;;;;;;0.60;0.60;;;;;;;0.70;63.02;101048.66;5067705;28;20452;-74
2022/11/19 01:03:56;;;;;;;0.57;0.57;;;;;;;0.73;62.88;101036.88;5068114;28;20031;-74
2022/11/19 01:06:25;;;;;;;0.60;0.60;;;;;;;0.65;62.71;101020.34;5066582;28;20044;-74
2022/11/19 01:08:51;;;;;;;0.65;0.65;;;;;;;0.61;62.80;101024.44;5067811;28;20036;-74
2022/11/19 01:11:20;;;;;;;0.50;0.50;;;;;;;0.55;62.77;101034.41;5067879;28;20037;-73
2022/11/19 01:13:46;;;;;;;0.60;0.60;;;;;;;0.48;62.96;101025.59;5067495;28;20048;-74
2022/11/19 01:16:24;;;;;;;0.60;0.60;;;;;;;0.51;62.85;101024.00;5049560;28;20021;-74
2022/11/19 01:18:50;;;;;;;0.60;0.60;;;;;;;0.50;62.82;101035.88;5067535;28;20098;-74
2022/11/19 01:21:17;;;;;;;0.60;0.60;;;;;;;0.49;62.68;101029.94;5066428;28;20021;-74
2022/11/19 01:23:43;;;;;;;0.60;0.60;;;;;;;0.53;62.72;101023.25;5066071;28;20032;-76
2022/11/19 01:26:10;;;;;;;0.60;0.60;;;;;;;0.55;62.70;101016.53;5068010;28;20029;-73
2022/11/19 01:28:36;;;;;;;0.60;0.60;;;;;;;0.59;62.72;101008.16;5069180;28;20025;-73
2022/11/19 01:31:11;;;;;;;0.60;0.60;;;;;;;0.61;62.76;101008.22;5069377;28;20089;-73
2022/11/19 01:33:37;;;;;;;0.77;0.77;;;;;;;0.64;62.90;100998.13;5067664;28;20057;-74
2022/11/19 01:36:06;;;;;;;0.60;0.60;;;;;;;0.68;62.58;101006.81;5067568;28;20515;-73
2022/11/19 01:38:32;;;;;;;0.70;0.70;;;;;;;0.68;62.68;100997.47;5065476;28;20037;-74
2022/11/19 01:40:58;;;;;;;0.60;0.60;;;;;;;0.74;62.72;100994.28;5067362;28;20040;-74
2022/11/19 01:43:50;;;;;;;0.60;0.60;;;;;;;0.76;62.53;100989.25;5067220;28;20033;-73
2022/11/19 01:46:18;;;;;;;0.70;0.70;;;;;;;0.72;62.47;100989.13;5067231;28;20102;-74
2022/11/19 01:48:52;;;;;;;0.70;0.70;;;;;;;0.68;62.48;100981.25;5066870;28;20020;-74
2022/11/19 01:51:24;;;;;;;0.60;0.60;;;;;;;0.71;62.26;100984.81;5067257;28;20051;-74
2022/11/19 01:53:52;;;;;;;0.60;0.60;;;;;;;0.73;62.04;100984.88;5065129;28;20107;-74
2022/11/19 01:56:20;;;;;;;0.60;0.60;;;;;;;0.71;62.12;100979.72;5066999;28;20457;-73
2022/11/19 01:58:51;;;;;;;0.60;0.60;;;;;;;0.72;61.90;100978.00;5066787;28;20033;-73
2022/11/19 02:01:17;;;;;;;0.70;0.70;;;;;;;0.70;62.11;100972.81;5066576;28;20144;-74
2022/11/19 02:03:43;;;;;;;0.60;0.60;;;;;;;0.75;61.61;100983.28;5066824;28;20037;-73
2022/11/19 02:06:10;;;;;;;0.70;0.70;;;;;;;0.66;61.83;100981.19;5066853;28;20033;-73
2022/11/19 02:08:48;;;;;;;0.60;0.60;;;;;;;0.72;61.76;100980.56;5066352;28;20113;-74
2022/11/19 02:11:36;;;;;;;0.60;0.60;;;;;;;0.73;61.81;100987.44;5066268;28;20021;-73
2022/11/19 02:14:19;;;;;;;0.70;0.70;;;;;;;0.79;61.58;100992.81;5066915;28;20071;-73
2022/11/19 02:16:44;;;;;;;0.57;0.57;;;;;;;0.83;61.59;100981.03;5066909;28;20294;-73
2022/11/19 02:19:27;;;;;;;0.70;0.70;;;;;;;0.88;61.65;100982.06;5066173;28;20400;-73
2022/11/19 02:21:55;;;;;;;0.60;0.60;;;;;;;0.94;61.33;100986.56;5065059;28;20033;-72
2022/11/19 02:24:42;;;;;;;0.70;0.70;;;;;;;0.97;61.06;100972.25;5065010;28;20473;-73
2022/11/19 02:27:45;;;;;;;0.63;0.63;;;;;;;0.95;60.96;100973.84;5066431;28;20070;-73
2022/11/19 02:30:18;;;;;;;0.52;0.52;;;;;;;0.98;60.90;100979.09;5066371;28;20052;-73
2022/11/19 02:32:49;;;;;;;0.70;0.70;;;;;;;1.02;60.64;100985.22;5081607;28;20036;-72
2022/11/19 02:35:21;;;;;;;0.82;0.82;;;;;;;1.02;60.56;100974.09;5066138;28;20485;-76
2022/11/19 02:38:20;;;;;;;0.70;0.70;;;;;;;0.94;60.08;100969.53;5064654;28;20033;-73
2022/11/19 02:40:51;;;;;;;0.60;0.60;;;;;;;0.96;60.28;100970.47;5066267;28;20050;-73
2022/11/19 02:43:16;;;;;;;0.80;0.80;;;;;;;0.98;60.35;100973.97;5066032;28;20031;-73
2022/11/19 02:45:51;;;;;;;4.00;3.70;;;;;;;0.98;60.26;100968.84;5064758;28;20034;-73
2022/11/19 02:48:23;;;;;;;0.60;0.60;;;;;;;1.01;60.43;100973.22;5064640;28;20024;-72
2022/11/19 02:50:51;;;;;;;;;;;;;;;1.04;60.38;100977.59;5064978;28;20025;-72
2022/11/19 02:53:16;;;;;;;0.60;0.60;;;;;;;1.01;60.30;100957.03;5065635;28;19955;-71
2022/11/19 02:56:09;;;;;;;0.60;0.60;;;;;;;1.04;60.18;100967.38;5065825;28;20084;-73
2022/11/19 03:06:45;;;;;;;0.60;0.60;;;;;;;1.09;60.28;100965.84;5065509;28;20036;-71
2022/11/19 03:09:11;;;;;;;0.60;0.60;;;;;;;1.11;59.97;100964.22;5065499;28;20021;-72
2022/11/19 03:11:36;;;;;;;0.60;0.60;;;;;;;1.08;60.10;100959.00;5064131;28;20132;-72
2022/11/19 03:17:11;;;;;;;0.60;0.60;;;;;;;1.07;59.90;100953.00;5065206;28;20032;-72
2022/11/19 03:19:47;;;;;;;0.50;0.50;;;;;;;1.16;59.59;100955.06;5063798;28;20075;-72
2022/11/19 03:22:25;;;;;;;0.60;0.60;;;;;;;1.08;59.88;100941.09;5065228;28;20033;-71
2022/11/19 03:25:11;;;;;;;0.60;0.60;;;;;;;1.07;59.72;100931.69;5065055;28;20381;-71
2022/11/19 03:27:47;;;;;;;0.50;0.50;;;;;;;1.13;59.61;100946.38;5065509;28;20025;-72
2022/11/19 03:30:15;;;;;;;0.60;0.60;;;;;;;1.10;59.50;100929.25;5063767;28;20029;-72
2022/11/19 03:32:52;;;;;;;0.60;0.60;;;;;;;1.05;59.53;100938.41;5065291;28;20028;-72
2022/11/19 03:35:32;;;;;;;0.60;0.60;;;;;;;1.13;59.15;100937.03;5065269;28;20025;-72
2022/11/19 03:38:03;;;;;;;0.60;0.60;;;;;;;1.06;59.31;100935.03;5064878;28;20047;-71
2022/11/19 03:40:30;;;;;;;0.50;0.50;;;;;;;1.04;59.28;100932.41;5065591;28;20033;-71
2022/11/19 03:43:00;;;;;;;0.60;0.60;;;;;;;1.01;59.14;100931.44;5063692;28;20115;-73
2022/11/19 03:45:31;;;;;;;0.68;0.68;;;;;;;0.96;59.17;100934.69;5065147;28;20021;-73
2022/11/19 03:47:59;;;;;;;0.80;0.80;;;;;;;0.90;58.77;100939.56;5064074;28;20070;-71
2022/11/19 03:50:27;;;;;;;0.52;0.52;;;;;;;1.01;58.70;100931.44;5064262;28;20290;-70
2022/11/19 03:52:53;;;;;;;0.60;0.60;;;;;;;0.91;58.63;100923.38;5065041;28;20105;-71
2022/11/19 03:55:23;;;;;;;0.60;0.60;;;;;;;0.99;58.62;100934.78;5065523;28;20028;-70
2022/11/19 03:57:49;;;;;;;1.20;1.20;;;;;;;0.96;58.80;100924.44;5064379;28;20120;-72
2022/11/19 04:00:15;;;;;;;0.60;0.60;;;;;;;0.98;58.94;100934.72;5064962;28;20442;-73
2022/11/19 04:02:44;;;;;;;0.60;0.60;;;;;;;0.97;58.91;100913.44;5066598;28;20097;-72
2022/11/19 04:05:09;;;;;;;0.50;0.50;;;;;;;0.99;58.74;100924.56;5067818;28;20029;-72
2022/11/19 04:07:34;;;;;;;0.60;0.60;;;;;;;0.98;58.96;100911.72;5066800;28;20024;-74
2022/11/19 04:10:00;;;;;;;0.65;0.65;;;;;;;1.01;58.68;100923.78;5064996;28;20027;-71
2022/11/19 04:12:25;;;;;;;0.60;0.60;;;;;;;1.01;58.99;100916.97;5065228;28;20029;-73
2022/11/19 04:14:51;;;;;;;0.70;0.70;;;;;;;1.04;58.69;100916.22;5064746;28;20032;-74
2022/11/19 04:17:18;;;;;;;0.50;0.50;;;;;;;1.09;58.23;100912.13;5064637;28;20021;-72
2022/11/19 04:19:43;;;;;;;0.60;0.60;;;;;;;0.98;58.39;100917.72;5063133;28;20044;-73
2022/11/19 04:22:09;;;;;;;0.60;0.60;;;;;;;0.92;58.57;100904.69;5063046;28;20035;-72
2022/11/19 04:24:35;;;;;;;0.60;0.60;;;;;;;0.94;58.73;100926.06;5064729;28;20043;-72
2022/11/19 04:27:00;;;;;;;0.70;0.70;;;;;;;0.91;58.34;100913.16;5064638;28;20472;-72
2022/11/19 04:29:26;;;;;;;0.70;0.70;;;;;;;0.86;58.51;100927.47;5064752;28;20084;-71
2022/11/19 04:31:51;;;;;;;0.50;0.50;;;;;;;0.80;58.75;100910.19;5065074;28;20021;-74
2022/11/19 04:34:16;;;;;;;0.70;0.70;;;;;;;0.81;58.82;100919.63;5064483;28;20411;-71
2022/11/19 04:36:42;;;;;;;0.60;0.60;;;;;;;0.80;58.88;100912.75;5068137;28;20075;-71
2022/11/19 04:39:08;;;;;;;0.60;0.60;;;;;;;0.77;58.83;100901.53;5066637;28;20060;-71
2022/11/19 04:41:34;;;;;;;0.60;0.60;;;;;;;0.87;58.37;100906.19;5067196;28;20017;-73
2022/11/19 04:44:00;;;;;;;0.60;0.60;;;;;;;0.85;58.35;100892.47;5068253;28;20031;-70
2022/11/19 04:46:25;;;;;;;0.60;0.60;;;;;;;0.82;58.41;100892.34;5068606;28;20096;-71
2022/11/19 04:48:51;;;;;;;0.60;0.60;;;;;;;0.73;58.49;100875.88;5068804;28;20021;-70
2022/11/19 04:51:16;;;;;;;0.50;0.50;;;;;;;0.76;58.43;100872.53;5067478;28;20445;-71
2022/11/19 04:53:42;;;;;;;0.60;0.60;;;;;;;0.73;58.27;100870.75;5067860;28;20084;-71
2022/11/19 04:56:07;;;;;;;0.60;0.60;;;;;;;0.64;58.43;100865.25;5066949;28;20389;-72
2022/11/19 04:58:33;;;;;;;0.60;0.60;;;;;;;0.64;58.32;100885.69;5066704;28;20228;-72
2022/11/19 05:00:59;;;;;;;0.60;0.60;;;;;;;0.81;57.52;100883.81;5068130;28;20031;-71
2022/11/19 05:03:24;;;;;;;0.60;0.60;;;;;;;0.71;57.80;100879.16;5066434;28;20025;-73
2022/11/19 05:05:50;;;;;;;0.60;0.60;;;;;;;0.61;58.17;100847.25;5068144;28;20021;-73
2022/11/19 05:08:15;;;;;;;0.60;0.60;;;;;;;0.63;57.99;100878.84;5067964;28;20027;-72
2022/11/19 05:10:43;;;;;;;0.60;0.60;;;;;;;0.59;57.94;100871.88;5067938;28;20025;-74
2022/11/19 05:13:08;;;;;;;0.60;0.60;;;;;;;0.71;57.71;100871.47;5067856;28;20064;-73
2022/11/19 05:15:34;;;;;;;0.60;0.60;;;;;;;0.68;57.64;100854.34;5066593;28;20550;-72
2022/11/19 05:17:59;;;;;;;0.50;0.50;;;;;;;0.69;57.27;100860.31;5067715;28;20025;-74
2022/11/19 05:20:24;;;;;;;0.60;0.60;;;;;;;0.66;57.49;100847.41;5067722;28;20044;-73
2022/11/19 05:22:50;;;;;;;0.70;0.70;;;;;;;0.95;56.88;100868.13;5067777;28;20515;-73
2022/11/19 05:25:15;;;;;;;0.70;0.70;;;;;;;0.77;57.27;100863.19;5067617;28;20021;-75
2022/11/19 05:27:41;;;;;;;0.60;0.60;;;;;;;0.88;57.27;100868.72;5066241;28;20044;-73
2022/11/19 05:30:07;;;;;;;0.60;0.60;;;;;;;0.82;57.78;100864.22;5067540;28;20028;-74
2022/11/19 05:32:32;;;;;;;0.60;0.60;;;;;;;0.86;57.99;100868.66;5067315;28;20028;-74
2022/11/19 05:34:57;;;;;;;0.60;0.60;;;;;;;0.80;58.04;100861.63;5067497;28;20381;-72
2022/11/19 05:37:23;;;;;;;0.60;0.60;;;;;;;0.84;58.07;100857.50;5067443;28;20079;-74
2022/11/19 05:39:48;;;;;;;0.68;0.68;;;;;;;0.87;58.38;100862.72;5067154;28;20050;-75
2022/11/19 05:42:13;;;;;;;0.60;0.60;;;;;;;0.89;58.26;100863.66;5067605;28;20071;-74
2022/11/19 05:44:39;;;;;;;0.60;0.60;;;;;;;0.94;58.31;100866.41;5067159;28;20424;-75
2022/11/19 05:47:04;;;;;;;0.57;0.57;;;;;;;0.97;58.38;100867.41;5067142;28;20029;-73
2022/11/19 05:49:29;;;;;;;0.60;0.60;;;;;;;0.92;58.66;100860.34;5067227;28;20380;-73
2022/11/19 05:51:55;;;;;;;0.60;0.60;;;;;;;0.90;58.61;100847.50;5067100;28;20040;-73
2022/11/19 05:54:20;;;;;;;0.50;0.50;;;;;;;1.05;58.53;100866.81;5066844;28;20032;-71
2022/11/19 05:56:45;;;;;;;0.60;0.60;;;;;;;1.01;58.67;100870.06;5067061;28;20028;-73
2022/11/19 05:59:11;;;;;;;0.60;0.60;;;;;;;1.10;58.55;100868.72;5066678;28;20111;-73
2022/11/19 06:01:36;;;;;;;0.60;0.60;;;;;;;1.05;58.97;100869.38;5065647;28;20029;-72
2022/11/19 06:04:01;;;;;;;0.60;0.60;;;;;;;1.12;58.85;100876.44;5065753;28;20060;-74
2022/11/19 06:06:27;;;;;;;0.60;0.60;;;;;;;1.06;59.10;100871.97;5066857;28;20017;-71
2022/11/19 06:08:52;;;;;;;0.60;0.60;;;;;;;0.99;59.25;100859.78;5066705;28;20021;-75
2022/11/19 06:14:02;;;;;;;0.60;0.60;;;;;;;1.03;59.25;100858.19;5066846;28;20138;-74
2022/11/19 06:16:27;;;;;;;0.60;0.60;;;;;;;0.96;59.46;100864.75;5066353;28;20084;-75
2022/11/19 06:18:53;;;;;;;0.63;0.63;;;;;;;1.09;59.17;100866.97;5064842;28;20044;-75
2022/11/19 06:21:18;;;;;;;0.60;0.60;;;;;;;0.98;59.31;100861.47;5066524;28;20482;-71
2022/11/19 06:23:44;;;;;;;0.60;0.60;;;;;;;0.92;59.69;100845.00;5066123;28;20032;-74
2022/11/19 06:26:10;;;;;;;0.60;0.60;;;;;;;1.01;59.69;100859.84;5064954;28;20029;-76
2022/11/19 06:28:35;;;;;;;0.60;0.60;;;;;;;1.02;59.56;100872.69;5048528;28;20028;-74
2022/11/19 06:31:01;;;;;;;0.60;0.60;;;;;;;0.99;59.51;100862.34;5066380;28;20112;-74
2022/11/19 06:33:26;;;;;;;0.52;0.52;;;;;;;0.89;59.65;100840.66;5064734;28;20476;-75
2022/11/19 06:35:51;;;;;;;0.60;0.60;;;;;;;1.02;59.74;100856.47;5066186;28;20077;-75
2022/11/19 06:38:17;;;;;;;0.60;0.60;;;;;;;1.05;59.54;100882.16;5064385;28;20464;-74
2022/11/19 06:40:46;;;;;;;0.60;0.60;;;;;;;1.20;57.98;100840.94;5066291;28;20039;-73
2022/11/19 06:43:11;;;;;;;0.60;0.60;;;;;;;1.15;58.41;100845.88;5065878;28;20020;-73
2022/11/19 06:45:37;;;;;;;0.60;0.60;;;;;;;0.95;58.74;100840.91;5065803;28;20105;-75
2022/11/19 06:48:02;;;;;;;0.60;0.60;;;;;;;0.93;58.66;100857.84;5064726;28;20488;-74
2022/11/19 06:50:29;;;;;;;0.70;0.70;;;;;;;0.92;58.47;100878.25;5066094;28;20035;-74
2022/11/19 06:52:54;;;;;;;0.55;0.55;;;;;;;0.91;58.42;100864.59;5065720;28;20033;-75
2022/11/19 06:55:20;;;;;;;0.65;0.65;;;;;;;0.85;58.64;100859.22;5065591;28;20063;-74
2022/11/19 06:57:45;;;;;;;0.68;0.68;;;;;;;0.83;58.68;100845.53;5065277;28;20021;-76
2022/11/19 07:00:12;;;;;;;0.60;0.60;;;;;;;0.98;58.18;100855.47;5065693;28;20025;-72
2022/11/19 07:02:38;;;;;;;0.57;0.57;;;;;;;0.85;58.69;100859.22;5064202;28;20029;-73
2022/11/19 07:05:04;;;;;;;0.60;0.60;;;;;;;0.83;58.72;100871.09;5065598;28;20036;-75
2022/11/19 07:07:30;;;;;;;0.60;0.60;;;;;;;0.89;58.65;100870.47;5064154;28;20016;-74
2022/11/19 07:09:56;;;;;;;0.60;0.60;;;;;;;0.92;58.59;100856.13;5065421;28;20051;-75
2022/11/19 07:12:21;;;;;;;0.52;0.52;;;;;;;0.93;58.69;100860.41;5065524;28;20476;-75
2022/11/19 07:14:46;;;;;;;0.60;0.60;;;;;;;1.10;58.19;100872.97;5065276;28;20032;-73
2022/11/19 07:17:11;;;;;;;0.63;0.63;;;;;;;0.95;58.39;100874.13;5065711;28;20456;-74
2022/11/19 07:19:37;;;;;;;1.08;1.02;;;;;;;0.90;58.45;100862.84;5065833;28;20139;-74
2022/11/19 07:22:02;;;;;;;0.52;0.52;;;;;;;0.82;58.57;100895.78;5068590;28;20083;-72
2022/11/19 07:24:28;;;;;;;0.52;0.52;;;;;;;0.92;58.48;100840.78;5065982;28;20032;-71
2022/11/19 07:26:54;;;;;;;0.70;0.70;;;;;;;1.03;57.96;100859.09;5065754;28;20039;-72
2022/11/19 07:29:19;;;;;;;0.60;0.60;;;;;;;1.05;58.02;100859.13;5064051;28;20017;-74
2022/11/19 07:31:49;;;;;;;0.60;0.60;;;;;;;0.88;58.35;100831.22;5065621;28;20055;-76
2022/11/19 07:34:14;;;;;;;0.60;0.60;;;;;;;1.05;57.98;100864.25;5063833;28;20021;-75
2022/11/19 07:36:39;;;;;;;0.60;0.60;;;;;;;1.03;57.91;100855.66;5065219;28;20032;-76
2022/11/19 07:39:05;;;;;;;0.60;0.60;;;;;;;0.89;58.21;100850.00;5064856;28;20025;-75
2022/11/19 07:44:14;;;;;;;0.60;0.60;;;;;;;1.07;58.08;100844.72;5065160;28;20028;-75
2022/11/19 07:46:40;;;;;;;0.60;0.60;;;;;;;0.93;58.36;100862.09;5065146;28;20021;-75
2022/11/19 07:49:05;;;;;;;0.50;0.50;;;;;;;1.03;58.10;100842.84;5065335;28;20021;-75
2022/11/19 07:51:31;;;;;;;0.60;0.60;;;;;;;1.13;57.84;100856.88;5065228;28;20029;-73
2022/11/19 07:53:56;;;;;;;0.50;0.50;;;;;;;0.97;58.26;100849.50;5064626;28;20029;-73
2022/11/19 07:56:22;;;;;;;0.63;0.63;;;;;;;1.11;58.19;100864.50;5063687;28;20032;-74
2022/11/19 07:58:48;;;;;;;0.60;0.60;;;;;;;1.24;58.14;100850.47;5065239;28;20025;-72
2022/11/19 08:01:17;;;;;;;0.60;0.60;;;;;;;1.23;58.12;100847.03;5065016;28;20074;-70
2022/11/19 08:03:45;;;;;;;0.65;0.65;;;;;;;1.18;58.35;100817.84;5064828;28;20063;-69
2022/11/19 08:06:11;;;;;;;0.60;0.60;;;;;;;1.11;58.37;100833.78;5065024;28;20029;-71
2022/11/19 08:08:37;;;;;;;0.60;0.60;;;;;;;1.06;58.60;100843.84;5064594;28;20025;-74
2022/11/19 08:11:04;;;;;;;0.70;0.70;;;;;;;1.13;58.55;100834.72;5066058;28;20021;-75
2022/11/19 08:13:39;;;;;;;0.60;0.60;;;;;;;1.22;58.14;100837.63;5068661;28;20027;-76
2022/11/19 08:16:07;;;;;;;0.60;0.60;;;;;;;1.16;58.39;100832.28;5054726;28;20080;-74
2022/11/19 08:18:36;;;;;;;0.52;0.52;;;;;;;1.13;58.78;100837.28;5068318;28;20508;-74
2022/11/19 08:21:10;;;;;;;0.60;0.60;;;;;;;1.10;58.58;100806.50;5068788;28;20188;-74
2022/11/19 08:23:36;;;;;;;0.60;0.60;;;;;;;1.17;58.63;100841.69;5068128;28;20100;-76
2022/11/19 08:26:03;;;;;;;0.60;0.60;;;;;;;1.22;59.00;100829.97;5067288;28;20025;-74
2022/11/19 08:28:28;;;;;;;0.52;0.52;;;;;;;1.47;58.77;100827.44;5068603;28;20021;-73
2022/11/19 08:30:54;;;;;;;0.60;0.60;;;;;;;1.45;58.51;100809.44;5068760;28;20110;-75
2022/11/19 08:33:19;;;;;;;0.60;0.60;;;;;;;1.53;58.67;100807.16;5068294;28;20029;-73
2022/11/19 08:35:45;;;;;;;0.60;0.60;;;;;;;1.61;58.43;100818.53;5068026;28;20025;-70
2022/11/19 08:38:10;;;;;;;0.50;0.50;;;;;;;1.70;58.09;100817.09;5067820;28;20108;-75
2022/11/19 08:40:35;;;;;;;0.60;0.60;;;;;;;1.61;58.07;100812.56;5068340;28;20025;-70
2022/11/19 08:43:01;;;;;;;0.50;0.50;;;;;;;1.56;58.14;100779.13;5066795;28;20021;-72
2022/11/19 08:45:32;;;;;;;0.50;0.50;;;;;;;1.54;58.10;100800.34;5068494;28;20016;-67
2022/11/19 08:47:59;;;;;;;0.60;0.60;;;;;;;1.71;58.66;100813.75;5068015;28;20040;-71
2022/11/19 08:50:26;;;;;;;0.60;0.60;;;;;;;2.01;57.93;100805.38;5066655;28;20028;-70
2022/11/19 08:52:56;;;;;;;0.60;0.60;;;;;;;2.03;57.56;100808.81;5067710;28;20021;-70
2022/11/19 08:55:22;;;;;;;0.50;0.50;;;;;;;1.91;57.38;100781.13;5066733;28;20109;-70
2022/11/19 08:57:48;;;;;;;0.60;0.60;;;;;;;1.80;57.39;100813.19;5067085;28;20041;-70
2022/11/19 09:00:14;;;;;;;0.60;0.60;;;;;;;1.68;57.74;100793.13;5066943;28;20028;-71
2022/11/19 09:02:39;;;;;;;0.60;0.60;;;;;;;1.58;57.82;100797.09;5066563;28;20028;-70
2022/11/19 09:05:05;;;;;;;0.50;0.50;;;;;;;1.63;57.96;100812.59;5068256;28;20090;-70
2022/11/19 09:07:30;;;;;;;0.50;0.50;;;;;;;1.54;58.11;100779.88;5066893;28;20418;-70
2022/11/19 09:09:56;;;;;;;0.60;0.60;;;;;;;1.63;58.17;100781.91;5067066;28;20329;-70
2022/11/19 09:12:21;;;;;;;0.55;0.55;;;;;;;1.53;58.30;100760.22;5068832;28;20046;-70
2022/11/19 09:14:46;;;;;;;0.60;0.60;;;;;;;1.46;58.40;100765.13;5068666;28;20032;-75
2022/11/19 09:17:12;;;;;;;0.60;0.60;;;;;;;1.49;58.53;100777.16;5067855;28;20040;-71
2022/11/19 09:19:37;;;;;;;0.55;0.55;;;;;;;1.53;58.38;100773.91;5065962;28;20044;-72
2022/11/19 09:22:03;;;;;;;0.60;0.60;;;;;;;1.57;58.66;100764.63;5067116;28;20029;-71
2022/11/19 09:24:28;;;;;;;0.60;0.60;;;;;;;1.61;58.78;100803.16;5067432;28;20450;-71
2022/11/19 09:26:53;;;;;;;0.60;0.60;;;;;;;1.53;58.70;100758.53;5066218;28;20051;-72
2022/11/19 09:29:19;;;;;;;0.50;0.50;;;;;;;1.47;59.07;100766.88;5067631;28;20056;-71
2022/11/19 09:31:44;;;;;;;0.60;0.60;;;;;;;1.58;58.77;100776.63;5066064;28;20033;-72
2022/11/19 09:34:10;;;;;;;0.60;0.60;;;;;;;1.52;59.07;100772.13;5067118;28;20083;-71
2022/11/19 09:36:35;;;;;;;0.60;0.60;;;;;;;1.55;59.49;100771.41;5067240;28;20032;-71
2022/11/19 09:39:01;;;;;;;0.60;0.60;;;;;;;1.68;59.02;100758.19;5066992;28;20086;-73
2022/11/19 09:41:59;;;;;;;0.60;0.60;;;;;;;1.66;59.30;100775.16;5066123;28;20029;-72
2022/11/19 09:44:50;;;;;;;0.50;0.50;;;;;;;1.79;58.85;100770.50;5065809;28;20024;-72
2022/11/19 09:47:38;;;;;;;0.60;0.60;;;;;;;1.60;59.20;100747.69;5065820;28;20021;-73
2022/11/19 09:50:22;;;;;;;0.60;0.60;;;;;;;1.60;59.48;100774.97;5067059;28;20075;-72
2022/11/19 09:52:57;;;;;;;0.50;0.50;;;;;;;1.65;59.66;100759.75;5067117;28;20044;-72
2022/11/19 09:55:29;;;;;;;0.60;0.60;;;;;;;1.60;59.66;100755.38;5049171;28;20029;-73
2022/11/19 09:57:56;;;;;;;0.60;0.60;;;;;;;1.57;59.75;100772.28;5068709;28;20021;-71
2022/11/19 10:00:37;;;;;;;0.60;0.60;;;;;;;1.59;59.56;100763.00;5068370;28;20037;-74
2022/11/19 10:03:13;;;;;;;0.60;0.60;;;;;;;1.73;59.45;100777.13;5065697;28;20075;-74
2022/11/19 10:05:54;;;;;;;0.60;0.60;;;;;;;1.80;59.12;100772.22;5049036;28;20017;-76
2022/11/19 10:08:31;;;;;;;0.52;0.52;;;;;;;1.60;59.54;100757.03;5065136;28;20028;-71
2022/11/19 10:11:03;;;;;;;0.60;0.60;;;;;;;1.54;59.84;100767.97;5066783;28;20043;-76
2022/11/19 10:13:47;;;;;;;0.70;0.70;;;;;;;1.57;60.01;100774.84;5065553;28;20032;-74
2022/11/19 10:16:31;;;;;;;1.17;1.17;;;;;;;1.62;59.62;100768.22;5066841;28;20055;-73
2022/11/19 10:19:18;;;;;;;0.60;0.60;;;;;;;1.58;60.02;100767.22;5066260;28;20055;-71
2022/11/19 10:21:54;;;;;;;0.60;0.60;;;;;;;1.78;59.74;100761.03;5065697;28;20025;-74
2022/11/19 10:24:25;;;;;;;0.60;0.60;;;;;;;1.62;60.04;100750.28;5064163;28;20063;-74
2022/11/19 10:26:58;;;;;;;0.70;0.70;;;;;;;1.60;60.23;100737.44;5064334;28;20028;-74
2022/11/19 10:29:27;;;;;;;0.60;0.60;;;;;;;1.67;59.53;100750.44;5064390;28;20039;-72
2022/11/19 10:31:53;;;;;;;0.60;0.60;;;;;;;1.66;59.67;100766.63;5080603;28;20024;-72
2022/11/19 10:34:35;;;;;;;0.60;0.60;;;;;;;1.70;59.29;100768.47;5064569;28;20110;-73
2022/11/19 10:37:07;;;;;;;0.60;0.60;;;;;;;1.65;59.27;100742.72;5065577;28;20550;-71
2022/11/19 10:39:40;;;;;;;0.60;0.60;;;;;;;1.68;59.29;100750.50;5063871;28;20036;-73
2022/11/19 10:42:24;;;;;;;0.60;0.60;;;;;;;1.79;58.37;100745.75;5064292;28;20032;-76
2022/11/19 10:44:59;;;;;;;0.50;0.50;;;;;;;1.69;58.80;100742.00;5047516;28;20035;-75
2022/11/19 10:47:38;;;;;;;0.60;0.60;;;;;;;1.67;59.01;100748.78;5065502;28;20088;-72
2022/11/19 10:50:04;;;;;;;0.60;0.60;;;;;;;1.55;59.14;100753.47;5065201;28;20032;-73
2022/11/19 10:52:35;;;;;;;0.50;0.50;;;;;;;1.56;58.80;100739.84;5047553;28;20051;-73
2022/11/19 10:55:23;;;;;;;0.60;0.60;;;;;;;1.58;58.27;100726.28;5065300;28;20056;-76
2022/11/19 10:57:51;;;;;;;0.60;0.60;;;;;;;1.53;58.48;100740.63;5064925;28;20174;-73
2022/11/19 11:00:17;;;;;;;0.60;0.60;;;;;;;1.55;57.95;100736.41;5065308;28;20025;-73
2022/11/19 11:02:51;;;;;;;0.50;0.50;;;;;;;1.48;57.86;100725.13;5065039;28;20031;-73
2022/11/19 11:05:20;;;;;;;0.70;0.70;;;;;;;1.78;57.36;100733.78;5063628;28;20024;-72
2022/11/19 11:07:45;;;;;;;0.60;0.60;;;;;;;1.76;56.78;100722.59;5063608;28;20070;-73
2022/11/19 11:10:32;;;;;;;0.60;0.60;;;;;;;2.40;57.26;100737.41;5063703;28;20029;-71
2022/11/19 11:15:51;;;;;;;0.60;0.60;;;;;;;3.44;52.47;100706.09;5065195;28;20085;-70
2022/11/19 11:18:18;;;;;;;0.60;0.60;;;;;;;2.86;54.20;100711.38;5064785;28;20028;-70
2022/11/19 11:20:46;;;;;;;0.60;0.60;;;;;;;2.59;54.16;100725.13;5026013;28;1092033;-73
2022/11/19 11:23:21;;;;;;;0.55;0.55;;;;;;;2.30;54.62;100715.75;5047662;28;20104;-71
2022/11/19 11:25:56;;;;;;;0.55;0.55;;;;;;;2.07;55.49;100715.03;5066087;28;20082;-71
2022/11/19 11:28:22;;;;;;;0.60;0.60;;;;;;;2.10;55.19;100718.56;5065599;28;20025;-72
2022/11/19 11:30:57;;;;;;;0.50;0.50;;;;;;;1.84;56.14;100703.25;5065603;28;20025;-73
2022/11/19 11:33:37;;;;;;;0.60;0.60;;;;;;;1.84;56.62;100702.38;5065395;28;20031;-71
2022/11/19 11:36:14;;;;;;;0.60;0.60;;;;;;;1.89;56.75;100700.81;5064133;28;20036;-72
2022/11/19 11:38:44;;;;;;;0.60;0.60;;;;;;;1.98;56.48;100687.47;5047057;28;20044;-71
2022/11/19 11:41:13;;;;;;;0.60;0.60;;;;;;;2.06;56.35;100695.38;5063966;28;20021;-71
2022/11/19 11:44:00;;;;;;;0.60;0.60;;;;;;;2.03;56.22;100688.44;5065067;28;20491;-71
2022/11/19 11:46:37;;;;;;;0.60;0.60;;;;;;;2.15;55.71;100685.41;5047095;28;20111;-71
2022/11/19 11:49:05;;;;;;;0.60;0.60;;;;;;;2.05;55.54;100678.25;5063775;28;20048;-72
2022/11/19 11:51:38;;;;;;;0.55;0.55;;;;;;;2.10;55.08;100662.22;5065341;28;20100;-75
2022/11/19 11:54:16;;;;;;;0.60;0.60;;;;;;;1.96;55.79;100661.81;5064799;28;20029;-72
2022/11/19 11:56:43;;;;;;;0.60;0.60;;;;;;;1.93;55.82;100677.03;5065284;28;20029;-72
2022/11/19 11:59:14;;;;;;;0.60;0.60;;;;;;;1.96;55.91;100687.41;5063492;28;20028;-70
2022/11/19 12:01:41;;;;;;;0.60;0.60;;;;;;;2.00;55.71;100675.56;5047010;28;20059;-71